Greenisland, United Kingdom
Current Conditions -  °F | °C
As of 9:20 PM on Thursday 23 Oct 2014 (Local Time) from EGAC Reporting Station
Scattered Clouds Scattered Clouds  
Wind Chill: 54°   Ceiling: Unl
Heat Index: 54°   Visibility: 6mi
Dew Point: 48°   Wind: 8mph
Humidity: 82%   Direction: 230°SW
Pressure: 29.8"   Gusts: NA
Location:  54.7°N, 5.87°W
Report Text: EGAC 232020Z 23007KT 9999 FEW025 SCT045 12/09 Q1009
Loading
Personal Weather Stations






























Interactive Weather Map New forecast layout! Learn more

10-Day Weather Forecast

Advertisements
Track Severe Weather on mobile